Time;durP1;ratioP1;P1;durP2;ratioP2;P2;SDS_P1;SDS_P2;PMS_P1;PMS_P2;Temp;Humidity;BMP_temperature;BMP_pressure;BME280_temperature;BME280_humidity;BME280_pressure;Samples;Min_cycle;Max_cycle;Signal;HPM_P1;HPM_P2
2023/03/10 00:00:24;;;;;;;;;;;4.40;92.00;;;;;;5090344;28;19931;-35
2023/03/10 00:02:49;;;;;;;;;;;4.40;91.70;;;;;;5091494;28;19940;-35
2023/03/10 00:05:16;;;;;;;;;;;4.40;91.80;;;;;;5091023;28;19994;-36
2023/03/10 00:07:42;;;;;;;;;;;4.40;91.80;;;;;;5091047;28;19913;-34
2023/03/10 00:10:09;;;;;;;;;;;4.40;91.80;;;;;;5090954;28;19915;-36
2023/03/10 00:12:34;;;;;;;;;;;4.40;91.80;;;;;;5090968;28;19908;-35
2023/03/10 00:15:00;;;;;;;;;;;4.50;91.90;;;;;;5090891;28;19919;-34
2023/03/10 00:17:26;;;;;;;;;;;4.50;91.80;;;;;;5090883;28;19908;-35
2023/03/10 00:19:52;;;;;;;;;;;4.50;91.80;;;;;;5091097;28;19912;-35
2023/03/10 00:22:17;;;;;;;;;;;4.60;91.80;;;;;;5091045;28;19961;-36
2023/03/10 00:24:43;;;;;;;;;;;4.60;91.80;;;;;;5090926;28;20387;-35
2023/03/10 00:27:08;;;;;;;;;;;4.60;91.80;;;;;;5090692;28;20011;-35
2023/03/10 00:29:33;;;;;;;;;;;4.70;91.80;;;;;;5090959;28;20363;-35
2023/03/10 00:31:59;;;;;;;;;;;4.70;91.80;;;;;;5089870;28;19966;-32
2023/03/10 00:34:24;;;;;;;;;;;4.70;91.80;;;;;;5090492;28;19973;-34
2023/03/10 00:36:50;;;;;;;;;;;4.70;91.80;;;;;;5091621;28;19908;-34
2023/03/10 00:39:16;;;;;;;;;;;4.80;91.80;;;;;;5094388;28;20368;-34
2023/03/10 00:41:41;;;;;;;;;;;4.80;91.70;;;;;;5094363;28;20023;-34
2023/03/10 00:44:09;;;;;;;;;;;4.80;91.70;;;;;;5094490;28;19959;-35
2023/03/10 00:46:37;;;;;;;;;;;4.90;91.70;;;;;;5094809;28;19908;-34
2023/03/10 00:49:03;;;;;;;;;;;4.90;91.70;;;;;;5094542;28;19908;-34
2023/03/10 00:51:28;;;;;;;;;;;4.90;91.70;;;;;;5094261;28;19981;-34
2023/03/10 00:53:54;;;;;;;;;;;4.90;91.70;;;;;;5094223;28;19912;-34
2023/03/10 00:56:21;;;;;;;;;;;4.90;91.70;;;;;;5094505;28;19914;-34
2023/03/10 00:58:49;;;;;;;;;;;4.90;91.70;;;;;;5094635;28;20377;-34
2023/03/10 01:01:16;;;;;;;;;;;4.90;91.70;;;;;;5094097;28;19915;-34
2023/03/10 01:03:42;;;;;;;;;;;4.90;91.60;;;;;;5094475;28;19918;-34
2023/03/10 01:06:08;;;;;;;;;;;4.90;91.60;;;;;;5094348;28;19915;-34
2023/03/10 01:08:33;;;;;;;;;;;4.90;91.60;;;;;;5094218;28;19924;-35
2023/03/10 01:10:59;;;;;;;;;;;4.90;91.60;;;;;;5094337;28;19912;-35
2023/03/10 01:13:24;;;;;;;;;;;4.90;91.60;;;;;;5094045;28;19908;-34
2023/03/10 01:15:50;;;;;;;;;;;4.90;91.60;;;;;;5094142;28;20283;-34
2023/03/10 01:18:16;;;;;;;;;;;4.80;91.60;;;;;;5094356;28;19941;-34
2023/03/10 01:20:42;;;;;;;;;;;4.90;91.70;;;;;;5093908;28;20061;-34
2023/03/10 01:23:12;;;;;;;;;;;4.90;91.60;;;;;;5094021;28;20370;-33
2023/03/10 01:25:37;;;;;;;;;;;4.80;91.60;;;;;;5093889;28;19931;-35
2023/03/10 01:28:03;;;;;;;;;;;4.80;91.70;;;;;;5093600;28;20385;-34
2023/03/10 01:30:28;;;;;;;;;;;4.80;91.70;;;;;;5093995;28;19977;-35
2023/03/10 01:32:54;;;;;;;;;;;4.90;91.70;;;;;;5094018;28;19909;-34
2023/03/10 01:35:19;;;;;;;;;;;4.90;91.70;;;;;;5093744;28;19948;-35
2023/03/10 01:37:45;;;;;;;;;;;5.00;91.70;;;;;;5093444;28;20386;-35
2023/03/10 01:40:15;;;;;;;;;;;5.00;91.70;;;;;;5093701;28;19915;-34
2023/03/10 01:42:40;;;;;;;;;;;5.10;91.70;;;;;;5093539;28;19913;-34
2023/03/10 01:45:06;;;;;;;;;;;5.10;91.60;;;;;;5093385;28;19908;-34
2023/03/10 01:47:32;;;;;;;;;;;5.10;91.60;;;;;;5093525;28;19969;-35
2023/03/10 01:49:57;;;;;;;;;;;5.20;91.60;;;;;;5091600;28;19961;-35
2023/03/10 01:52:24;;;;;;;;;;;5.20;91.60;;;;;;5093310;28;19916;-32
2023/03/10 01:54:49;;;;;;;;;;;5.20;91.60;;;;;;5093441;28;19912;-35
2023/03/10 01:57:15;;;;;;;;;;;5.20;91.50;;;;;;5093595;28;19908;-34
2023/03/10 01:59:41;;;;;;;;;;;5.30;91.60;;;;;;5093268;28;19915;-32
2023/03/10 02:02:08;;;;;;;;;;;5.30;91.50;;;;;;5093098;28;19908;-35
2023/03/10 02:04:41;;;;;;;;;;;5.30;91.50;;;;;;5093404;28;19957;-34
2023/03/10 02:07:07;;;;;;;;;;;5.30;91.40;;;;;;5093122;28;19991;-34
2023/03/10 02:09:35;;;;;;;;;;;5.20;91.40;;;;;;5093184;28;19985;-34
2023/03/10 02:12:02;;;;;;;;;;;5.30;91.50;;;;;;5093011;28;20011;-34
2023/03/10 02:14:27;;;;;;;;;;;5.30;91.60;;;;;;5092944;28;19908;-35
2023/03/10 02:16:53;;;;;;;;;;;5.30;91.50;;;;;;5093161;28;19991;-35
2023/03/10 02:19:25;;;;;;;;;;;5.30;91.50;;;;;;5092753;28;19912;-35
2023/03/10 02:21:57;;;;;;;;;;;5.30;91.50;;;;;;5093127;28;19908;-35
2023/03/10 02:24:28;;;;;;;;;;;5.30;91.50;;;;;;5092759;28;19931;-34
2023/03/10 02:26:54;;;;;;;;;;;5.30;91.50;;;;;;5092612;28;20325;-34
2023/03/10 02:29:25;;;;;;;;;;;5.30;91.50;;;;;;5091219;28;19912;-35
2023/03/10 02:31:52;;;;;;;;;;;5.30;91.50;;;;;;5092441;28;20011;-33
2023/03/10 02:34:18;;;;;;;;;;;5.30;91.50;;;;;;5091140;28;19912;-34
2023/03/10 02:36:43;;;;;;;;;;;5.30;91.50;;;;;;5092346;28;20371;-32
2023/03/10 02:39:09;;;;;;;;;;;5.30;91.50;;;;;;5092383;28;19937;-35
2023/03/10 02:41:36;;;;;;;;;;;5.30;91.50;;;;;;5092402;28;20310;-35
2023/03/10 02:44:03;;;;;;;;;;;5.30;91.50;;;;;;5092450;28;19908;-34
2023/03/10 02:46:29;;;;;;;;;;;5.30;91.50;;;;;;5092388;28;19912;-35
2023/03/10 02:48:58;;;;;;;;;;;5.30;91.50;;;;;;5092338;28;19995;-34
2023/03/10 02:51:26;;;;;;;;;;;5.30;91.50;;;;;;5092033;28;20335;-34
2023/03/10 02:53:51;;;;;;;;;;;5.30;91.50;;;;;;5092167;28;19908;-34
2023/03/10 02:56:17;;;;;;;;;;;5.30;91.50;;;;;;5092060;28;19953;-34
2023/03/10 02:58:42;;;;;;;;;;;5.30;91.50;;;;;;5092048;28;19956;-34
2023/03/10 03:01:08;;;;;;;;;;;5.30;91.50;;;;;;5090988;28;20348;-35
2023/03/10 03:03:33;;;;;;;;;;;5.30;91.50;;;;;;5091525;28;19954;-34
2023/03/10 03:05:59;;;;;;;;;;;5.20;91.50;;;;;;5091781;28;20003;-34
2023/03/10 03:08:25;;;;;;;;;;;5.30;91.50;;;;;;5091678;28;19935;-34
2023/03/10 03:10:50;;;;;;;;;;;5.30;91.60;;;;;;5091723;28;19912;-35
2023/03/10 03:13:16;;;;;;;;;;;5.30;91.50;;;;;;5091484;28;19958;-32
2023/03/10 03:15:41;;;;;;;;;;;5.30;91.50;;;;;;5091566;28;19962;-34
2023/03/10 03:18:07;;;;;;;;;;;5.30;91.50;;;;;;5091657;28;20352;-35
2023/03/10 03:20:34;;;;;;;;;;;5.30;91.50;;;;;;5091602;28;19919;-34
2023/03/10 03:23:00;;;;;;;;;;;5.30;91.50;;;;;;5091469;28;20343;-35
2023/03/10 03:25:27;;;;;;;;;;;5.30;91.50;;;;;;5091596;28;19914;-34
2023/03/10 03:27:53;;;;;;;;;;;5.30;91.50;;;;;;5091400;28;19916;-34
2023/03/10 03:30:20;;;;;;;;;;;5.30;91.50;;;;;;5091537;28;20016;-35
2023/03/10 03:32:45;;;;;;;;;;;5.30;91.50;;;;;;5091596;28;20360;-33
2023/03/10 03:35:14;;;;;;;;;;;5.30;91.50;;;;;;5091448;28;19915;-35
2023/03/10 03:37:40;;;;;;;;;;;5.30;91.50;;;;;;5091611;28;19954;-35
2023/03/10 03:40:12;;;;;;;;;;;5.30;91.50;;;;;;5091661;28;19908;-34
2023/03/10 03:42:41;;;;;;;;;;;5.30;91.50;;;;;;5090305;28;19915;-34
2023/03/10 03:45:07;;;;;;;;;;;5.30;91.50;;;;;;5090213;28;19959;-34
2023/03/10 03:47:33;;;;;;;;;;;5.30;91.50;;;;;;5091385;28;19912;-34
2023/03/10 03:49:59;;;;;;;;;;;5.20;91.50;;;;;;5091414;28;19934;-34
2023/03/10 03:52:24;;;;;;;;;;;5.20;91.50;;;;;;5091199;28;20435;-32
2023/03/10 03:54:50;;;;;;;;;;;5.20;91.50;;;;;;5091681;28;20015;-35
2023/03/10 03:57:15;;;;;;;;;;;5.20;91.50;;;;;;5091431;28;19919;-34
2023/03/10 03:59:41;;;;;;;;;;;5.20;91.50;;;;;;5091358;28;19908;-35
2023/03/10 04:02:06;;;;;;;;;;;5.20;91.50;;;;;;5091301;28;19920;-33
2023/03/10 04:04:32;;;;;;;;;;;5.10;91.50;;;;;;5091267;28;19961;-35
2023/03/10 04:06:57;;;;;;;;;;;5.10;91.50;;;;;;5091262;28;19908;-35
2023/03/10 04:09:23;;;;;;;;;;;5.10;91.50;;;;;;5091140;28;19908;-34
2023/03/10 04:11:48;;;;;;;;;;;5.10;91.60;;;;;;5091734;28;19922;-35
2023/03/10 04:14:14;;;;;;;;;;;5.10;91.60;;;;;;5095114;28;19908;-34
2023/03/10 04:16:39;;;;;;;;;;;5.00;91.60;;;;;;5095323;28;19936;-35
2023/03/10 04:19:06;;;;;;;;;;;5.10;91.60;;;;;;5095084;28;20207;-34
2023/03/10 04:21:33;;;;;;;;;;;5.00;91.60;;;;;;5095447;28;19969;-34
2023/03/10 04:23:58;;;;;;;;;;;5.10;91.90;;;;;;5095079;28;19919;-35
2023/03/10 04:26:24;;;;;;;;;;;5.10;91.60;;;;;;5095010;28;20279;-34
2023/03/10 04:28:49;;;;;;;;;;;5.10;91.60;;;;;;5094729;28;20003;-35
2023/03/10 04:31:16;;;;;;;;;;;5.10;91.60;;;;;;5094846;28;19927;-34
2023/03/10 04:33:41;;;;;;;;;;;5.10;91.60;;;;;;5095108;28;20394;-35
2023/03/10 04:36:07;;;;;;;;;;;5.10;91.80;;;;;;5095113;28;19908;-33
2023/03/10 04:38:32;;;;;;;;;;;5.10;91.50;;;;;;5094878;28;19909;-35
2023/03/10 04:40:58;;;;;;;;;;;5.10;91.50;;;;;;5094849;28;19919;-35
2023/03/10 04:43:24;;;;;;;;;;;5.10;91.50;;;;;;5094619;28;20255;-36
2023/03/10 04:45:50;;;;;;;;;;;5.10;91.50;;;;;;5094657;28;20276;-36
2023/03/10 04:48:15;;;;;;;;;;;5.10;91.50;;;;;;5093399;28;19969;-33
2023/03/10 04:50:41;;;;;;;;;;;5.00;91.50;;;;;;5094509;28;19912;-35
2023/03/10 04:53:06;;;;;;;;;;;5.10;91.50;;;;;;5094333;28;20017;-33
2023/03/10 04:55:32;;;;;;;;;;;5.10;91.60;;;;;;5094506;28;19947;-35
2023/03/10 04:57:57;;;;;;;;;;;5.00;91.50;;;;;;5094434;28;20006;-32
2023/03/10 05:00:23;;;;;;;;;;;5.00;91.50;;;;;;5094198;28;19908;-34
2023/03/10 05:02:48;;;;;;;;;;;5.10;91.50;;;;;;5094291;28;20014;-35
2023/03/10 05:05:14;;;;;;;;;;;5.10;91.50;;;;;;5094319;28;19908;-33
2023/03/10 05:07:39;;;;;;;;;;;5.00;91.50;;;;;;5094170;28;19908;-35
2023/03/10 05:10:05;;;;;;;;;;;5.00;91.50;;;;;;5094107;28;19955;-35
2023/03/10 05:12:31;;;;;;;;;;;5.00;91.50;;;;;;5094098;28;19912;-33
2023/03/10 05:14:56;;;;;;;;;;;5.00;91.50;;;;;;5094085;28;19916;-32
2023/03/10 05:17:22;;;;;;;;;;;5.00;91.50;;;;;;5094158;28;19915;-35
2023/03/10 05:19:47;;;;;;;;;;;5.00;91.40;;;;;;5093929;28;19934;-33
2023/03/10 05:22:13;;;;;;;;;;;5.00;91.50;;;;;;5093888;28;19908;-33
2023/03/10 05:24:38;;;;;;;;;;;5.00;91.50;;;;;;5092867;28;20003;-34
2023/03/10 05:27:04;;;;;;;;;;;5.00;91.50;;;;;;5093769;28;19943;-34
2023/03/10 05:29:29;;;;;;;;;;;5.00;91.50;;;;;;5093770;28;20279;-35
2023/03/10 05:31:57;;;;;;;;;;;5.00;91.50;;;;;;5093160;28;20323;-34
2023/03/10 05:34:24;;;;;;;;;;;5.00;91.50;;;;;;5093687;28;19962;-36
2023/03/10 05:36:49;;;;;;;;;;;5.00;91.50;;;;;;5093913;28;20395;-35
2023/03/10 05:39:15;;;;;;;;;;;5.00;91.50;;;;;;5093571;28;19959;-35
2023/03/10 05:41:40;;;;;;;;;;;5.00;91.50;;;;;;5093418;28;20367;-35
2023/03/10 05:44:06;;;;;;;;;;;5.00;91.50;;;;;;5093454;28;19994;-36
2023/03/10 05:46:31;;;;;;;;;;;4.90;91.50;;;;;;5092100;28;19961;-36
2023/03/10 05:48:57;;;;;;;;;;;4.90;91.50;;;;;;5093350;28;19908;-35
2023/03/10 05:51:23;;;;;;;;;;;4.90;91.50;;;;;;5093444;28;19980;-32
2023/03/10 05:53:48;;;;;;;;;;;4.90;91.50;;;;;;5092115;28;19931;-34
2023/03/10 05:56:15;;;;;;;;;;;4.90;91.50;;;;;;5093547;28;19915;-33
2023/03/10 05:58:41;;;;;;;;;;;4.90;91.60;;;;;;5093405;28;20006;-36
2023/03/10 06:01:07;;;;;;;;;;;4.80;91.50;;;;;;5093306;28;20355;-35
2023/03/10 06:03:33;;;;;;;;;;;4.80;91.50;;;;;;5093194;28;19916;-37
2023/03/10 06:05:59;;;;;;;;;;;4.80;91.50;;;;;;5093113;28;19911;-35
2023/03/10 06:08:26;;;;;;;;;;;4.80;91.60;;;;;;5093084;28;19995;-35
2023/03/10 06:10:52;;;;;;;;;;;4.80;91.60;;;;;;5093036;28;20364;-36
2023/03/10 06:13:19;;;;;;;;;;;4.80;91.60;;;;;;5093021;28;19926;-36
2023/03/10 06:15:55;;;;;;;;;;;4.80;91.60;;;;;;5093165;28;19908;-36
2023/03/10 06:18:20;;;;;;;;;;;4.80;91.50;;;;;;5093056;28;20283;-36
2023/03/10 06:20:46;;;;;;;;;;;4.80;91.60;;;;;;5092802;28;19908;-35
2023/03/10 06:23:12;;;;;;;;;;;4.80;91.60;;;;;;5092958;28;20374;-36
2023/03/10 06:25:38;;;;;;;;;;;4.80;91.60;;;;;;5092949;28;20321;-34
2023/03/10 06:28:03;;;;;;;;;;;4.80;91.50;;;;;;5092856;28;19935;-35
2023/03/10 06:30:29;;;;;;;;;;;4.80;91.50;;;;;;5091350;28;19920;-35
2023/03/10 06:32:54;;;;;;;;;;;4.80;91.50;;;;;;5091766;28;19919;-35
2023/03/10 06:35:20;;;;;;;;;;;4.70;91.40;;;;;;5092277;28;19955;-36
2023/03/10 06:37:45;;;;;;;;;;;4.70;91.50;;;;;;5092713;28;20030;-34
2023/03/10 06:40:11;;;;;;;;;;;4.70;91.60;;;;;;5091089;28;19970;-36
2023/03/10 06:42:40;;;;;;;;;;;4.70;91.60;;;;;;5092657;28;20441;-35
2023/03/10 06:45:06;;;;;;;;;;;4.80;91.60;;;;;;5092536;28;19926;-35
2023/03/10 06:47:32;;;;;;;;;;;4.80;91.60;;;;;;5092477;28;20290;-36
2023/03/10 06:49:58;;;;;;;;;;;4.80;91.60;;;;;;5092701;28;20015;-35
2023/03/10 06:52:24;;;;;;;;;;;4.80;91.50;;;;;;5092390;28;20002;-33
2023/03/10 06:54:50;;;;;;;;;;;4.80;91.40;;;;;;5092384;28;19948;-36
2023/03/10 06:57:15;;;;;;;;;;;4.80;91.50;;;;;;5092181;28;20381;-34
2023/03/10 06:59:41;;;;;;;;;;;4.80;91.50;;;;;;5092283;28;19919;-36
2023/03/10 07:02:09;;;;;;;;;;;4.80;91.50;;;;;;5092216;28;19935;-34
2023/03/10 07:04:34;;;;;;;;;;;4.80;91.50;;;;;;5092261;28;20162;-36
2023/03/10 07:07:00;;;;;;;;;;;4.80;91.50;;;;;;5092232;28;20002;-36
2023/03/10 07:09:25;;;;;;;;;;;4.80;91.50;;;;;;5092196;28;19934;-35
2023/03/10 07:11:51;;;;;;;;;;;4.80;91.60;;;;;;5092100;28;19923;-36
2023/03/10 07:14:16;;;;;;;;;;;4.80;91.60;;;;;;5091969;28;19912;-36
2023/03/10 07:16:42;;;;;;;;;;;4.80;91.50;;;;;;5092087;28;20049;-36
2023/03/10 07:19:07;;;;;;;;;;;4.80;91.50;;;;;;5092095;28;20288;-36
2023/03/10 07:21:32;;;;;;;;;;;4.80;91.50;;;;;;5092351;28;20421;-38
2023/03/10 07:23:58;;;;;;;;;;;4.80;91.50;;;;;;5091886;28;19923;-35
2023/03/10 07:26:23;;;;;;;;;;;4.80;91.50;;;;;;5091813;28;20375;-33
2023/03/10 07:28:49;;;;;;;;;;;4.80;91.50;;;;;;5091532;28;19920;-36
2023/03/10 07:31:15;;;;;;;;;;;4.70;91.50;;;;;;5091655;28;20011;-33
2023/03/10 07:33:41;;;;;;;;;;;4.70;91.60;;;;;;5092118;28;19924;-36
2023/03/10 07:36:08;;;;;;;;;;;4.80;91.60;;;;;;5091764;28;19938;-36
2023/03/10 07:38:33;;;;;;;;;;;4.80;91.70;;;;;;5090383;28;19961;-36
2023/03/10 07:40:59;;;;;;;;;;;4.90;91.70;;;;;;5091570;28;20367;-33
2023/03/10 07:43:25;;;;;;;;;;;4.90;91.60;;;;;;5091617;28;20358;-36
2023/03/10 07:45:50;;;;;;;;;;;4.90;91.60;;;;;;5091495;28;20383;-36
2023/03/10 07:48:16;;;;;;;;;;;5.00;91.60;;;;;;5091196;28;20023;-36
2023/03/10 07:50:41;;;;;;;;;;;5.00;91.50;;;;;;5091541;28;19923;-37
2023/03/10 07:53:07;;;;;;;;;;;5.00;91.50;;;;;;5091588;28;19916;-37
2023/03/10 07:55:32;;;;;;;;;;;5.00;91.50;;;;;;5091482;28;19912;-38
2023/03/10 07:57:59;;;;;;;;;;;5.00;91.40;;;;;;5091431;28;19911;-36
2023/03/10 08:00:25;;;;;;;;;;;5.10;91.50;;;;;;5091228;28;19918;-36
2023/03/10 08:02:50;;;;;;;;;;;5.10;91.50;;;;;;5091518;28;19912;-36
2023/03/10 08:05:16;;;;;;;;;;;5.10;91.50;;;;;;5091542;28;19916;-33
2023/03/10 08:07:42;;;;;;;;;;;5.10;91.40;;;;;;5091186;28;20224;-36
2023/03/10 08:10:08;;;;;;;;;;;5.10;91.40;;;;;;5091151;28;19926;-35
2023/03/10 08:12:34;;;;;;;;;;;5.10;91.40;;;;;;5091166;28;19920;-35
2023/03/10 08:14:59;;;;;;;;;;;5.10;91.50;;;;;;5091187;28;19965;-33
2023/03/10 08:17:29;;;;;;;;;;;5.10;91.50;;;;;;5091330;28;20268;-35
2023/03/10 08:19:56;;;;;;;;;;;5.10;91.50;;;;;;5091039;28;19920;-36
2023/03/10 08:22:21;;;;;;;;;;;5.10;91.50;;;;;;5091167;28;20085;-35
2023/03/10 08:24:47;;;;;;;;;;;5.10;91.50;;;;;;5091117;28;20368;-34
2023/03/10 08:27:12;;;;;;;;;;;5.10;91.50;;;;;;5089984;28;19912;-35
2023/03/10 08:29:38;;;;;;;;;;;5.10;91.50;;;;;;5091095;28;19912;-36
2023/03/10 08:32:03;;;;;;;;;;;5.10;91.60;;;;;;5091247;28;20010;-36
2023/03/10 08:34:33;;;;;;;;;;;5.10;91.60;;;;;;5090924;28;20009;-36
2023/03/10 08:36:59;;;;;;;;;;;5.20;91.60;;;;;;5091389;28;19916;-35
2023/03/10 08:39:25;;;;;;;;;;;5.20;91.60;;;;;;5090953;28;19984;-36
2023/03/10 08:41:51;;;;;;;;;;;5.20;91.60;;;;;;5091018;28;20370;-36
2023/03/10 08:44:17;;;;;;;;;;;5.30;91.60;;;;;;5090830;28;19912;-36
2023/03/10 08:46:43;;;;;;;;;;;5.30;91.60;;;;;;5091335;28;20434;-35
2023/03/10 08:49:09;;;;;;;;;;;5.40;91.50;;;;;;5090999;28;19916;-35
2023/03/10 08:51:35;;;;;;;;;;;5.50;91.50;;;;;;5090865;28;19927;-35
2023/03/10 08:54:01;;;;;;;;;;;5.50;91.50;;;;;;5090201;28;19969;-36
2023/03/10 08:56:27;;;;;;;;;;;5.50;91.50;;;;;;5089571;28;19970;-36
2023/03/10 08:58:57;;;;;;;;;;;5.60;91.50;;;;;;5090759;28;19951;-36
2023/03/10 09:01:25;;;;;;;;;;;5.60;91.40;;;;;;5094559;28;19912;-36
2023/03/10 09:03:50;;;;;;;;;;;5.70;91.40;;;;;;5094478;28;19912;-36
2023/03/10 09:06:16;;;;;;;;;;;5.70;91.40;;;;;;5094194;28;19964;-36
2023/03/10 09:08:41;;;;;;;;;;;5.60;91.40;;;;;;5094508;28;20359;-37
2023/03/10 09:11:07;;;;;;;;;;;5.70;91.40;;;;;;5094164;28;20332;-36
2023/03/10 09:13:33;;;;;;;;;;;5.60;91.40;;;;;;5094347;28;19912;-36
2023/03/10 09:15:58;;;;;;;;;;;5.60;91.30;;;;;;5094056;28;19969;-35
2023/03/10 09:18:24;;;;;;;;;;;5.60;91.40;;;;;;5094191;28;19999;-40
2023/03/10 09:20:50;;;;;;;;;;;5.60;91.40;;;;;;5094133;28;19997;-35
2023/03/10 09:23:16;;;;;;;;;;;5.60;91.40;;;;;;5093913;28;19977;-42
2023/03/10 09:25:41;;;;;;;;;;;5.60;91.40;;;;;;5093821;28;19912;-41
2023/03/10 09:28:08;;;;;;;;;;;5.60;91.50;;;;;;5093586;28;19916;-33
2023/03/10 09:30:36;;;;;;;;;;;5.70;91.50;;;;;;5093566;28;20383;-35
2023/03/10 09:33:02;;;;;;;;;;;5.70;91.50;;;;;;5093810;28;19912;-36
2023/03/10 09:35:28;;;;;;;;;;;5.70;91.40;;;;;;5093679;28;20386;-41
2023/03/10 09:37:53;;;;;;;;;;;5.60;91.40;;;;;;5093685;28;19920;-36
2023/03/10 09:40:19;;;;;;;;;;;5.70;91.50;;;;;;5093546;28;19973;-35
2023/03/10 09:42:49;;;;;;;;;;;5.70;91.50;;;;;;5093676;28;19912;-36
2023/03/10 09:45:22;;;;;;;;;;;5.70;91.50;;;;;;5093499;28;19991;-36
2023/03/10 09:48:03;;;;;;;;;;;5.70;91.50;;;;;;5093461;28;19924;-35
2023/03/10 09:50:32;;;;;;;;;;;5.70;91.50;;;;;;5093259;28;19916;-35
2023/03/10 09:53:00;;;;;;;;;;;5.80;91.50;;;;;;5093351;28;19961;-35
2023/03/10 09:55:32;;;;;;;;;;;5.80;91.50;;;;;;5093339;28;19998;-35
2023/03/10 09:57:58;;;;;;;;;;;5.80;91.40;;;;;;5093465;28;19919;-34
2023/03/10 10:00:26;;;;;;;;;;;5.80;91.40;;;;;;5091910;28;19912;-35
2023/03/10 10:02:57;;;;;;;;;;;5.90;91.40;;;;;;5093120;28;19961;-38
2023/03/10 10:05:24;;;;;;;;;;;5.80;91.40;;;;;;5093125;28;19935;-35
2023/03/10 10:07:58;;;;;;;;;;;5.80;91.40;;;;;;5093126;28;19916;-35
2023/03/10 10:10:25;;;;;;;;;;;5.80;91.40;;;;;;5092371;28;20419;-36
2023/03/10 10:12:53;;;;;;;;;;;5.80;91.70;;;;;;5092833;28;19912;-35
2023/03/10 10:15:21;;;;;;;;;;;5.80;91.40;;;;;;5092669;28;20022;-33
2023/03/10 10:17:49;;;;;;;;;;;5.80;91.50;;;;;;5092916;28;19912;-35
2023/03/10 10:20:17;;;;;;;;;;;5.80;91.50;;;;;;5092913;28;20376;-32
2023/03/10 10:22:44;;;;;;;;;;;5.80;91.50;;;;;;5092868;28;19951;-37
2023/03/10 10:25:09;;;;;;;;;;;5.80;91.50;;;;;;5092969;28;19912;-37
2023/03/10 10:27:35;;;;;;;;;;;5.90;91.50;;;;;;5093661;28;20286;-35
2023/03/10 10:30:23;;;;;;;;;;;5.80;91.50;;;;;;5093215;28;19912;-36
2023/03/10 10:32:56;;;;;;;;;;;5.90;91.50;;;;;;5093017;28;19930;-36
2023/03/10 10:35:23;;;;;;;;;;;5.90;91.40;;;;;;5093047;28;20438;-36
2023/03/10 10:37:57;;;;;;;;;;;5.90;91.40;;;;;;5092908;28;20467;-35
2023/03/10 10:40:26;;;;;;;;;;;5.90;91.40;;;;;;5092863;28;20005;-37
2023/03/10 10:42:53;;;;;;;;;;;6.00;91.40;;;;;;5093109;28;20039;-36
2023/03/10 10:45:30;;;;;;;;;;;6.00;91.40;;;;;;5092815;28;20545;-41
2023/03/10 10:47:56;;;;;;;;;;;6.10;91.40;;;;;;5092898;28;20018;-36
2023/03/10 10:50:26;;;;;;;;;;;6.10;91.30;;;;;;5092834;28;19912;-36
2023/03/10 10:53:14;;;;;;;;;;;6.20;91.30;;;;;;5092711;28;20010;-35
2023/03/10 10:55:40;;;;;;;;;;;6.20;91.30;;;;;;5092760;28;20003;-35
2023/03/10 10:58:22;;;;;;;;;;;6.20;91.30;;;;;;5092820;28;19912;-35
2023/03/10 11:00:58;;;;;;;;;;;6.20;91.20;;;;;;5091434;28;19912;-35
2023/03/10 11:03:32;;;;;;;;;;;6.30;91.30;;;;;;5092905;28;19912;-35
2023/03/10 11:05:59;;;;;;;;;;;6.30;91.10;;;;;;5092757;28;19912;-36
2023/03/10 11:08:37;;;;;;;;;;;6.20;91.00;;;;;;5092660;28;19944;-36
2023/03/10 11:11:28;;;;;;;;;;;6.10;91.10;;;;;;5092543;28;19923;-36
2023/03/10 11:14:12;;;;;;;;;;;6.20;91.20;;;;;;5092645;28;19974;-36
2023/03/10 11:16:43;;;;;;;;;;;6.10;91.20;;;;;;5092481;28;19965;-35
2023/03/10 11:19:16;;;;;;;;;;;6.10;91.20;;;;;;5092662;28;19934;-36
2023/03/10 11:21:44;;;;;;;;;;;6.10;91.10;;;;;;5092045;28;20002;-36
2023/03/10 11:24:17;;;;;;;;;;;6.00;91.20;;;;;;5092406;28;19923;-36
2023/03/10 11:26:51;;;;;;;;;;;5.90;91.20;;;;;;5092306;28;19990;-35
2023/03/10 11:29:26;;;;;;;;;;;5.90;91.30;;;;;;5092665;28;19923;-36
2023/03/10 11:32:00;;;;;;;;;;;5.90;91.30;;;;;;5092313;28;19935;-36
2023/03/10 11:34:30;;;;;;;;;;;5.80;91.30;;;;;;5092186;28;19978;-36
2023/03/10 11:37:04;;;;;;;;;;;5.80;91.30;;;;;;5092201;28;19912;-35
2023/03/10 11:39:42;;;;;;;;;;;5.70;91.30;;;;;;5090854;28;20352;-36
2023/03/10 11:42:12;;;;;;;;;;;5.70;91.40;;;;;;5092263;28;19912;-35
2023/03/10 11:44:57;;;;;;;;;;;5.70;91.40;;;;;;5092005;28;19912;-35
2023/03/10 11:47:25;;;;;;;;;;;5.60;91.40;;;;;;5091881;28;19923;-36
2023/03/10 11:49:56;;;;;;;;;;;5.50;91.40;;;;;;5092002;28;19919;-36
2023/03/10 11:52:23;;;;;;;;;;;5.50;91.50;;;;;;5091915;28;19920;-36
2023/03/10 11:54:53;;;;;;;;;;;5.50;91.50;;;;;;5092059;28;19923;-36
2023/03/10 11:57:31;;;;;;;;;;;5.40;91.40;;;;;;5091941;28;19919;-36
2023/03/10 12:00:00;;;;;;;;;;;5.40;91.50;;;;;;5091992;28;20058;-35
2023/03/10 12:02:27;;;;;;;;;;;5.40;91.50;;;;;;5091970;28;20326;-35
2023/03/10 12:05:01;;;;;;;;;;;5.30;91.60;;;;;;5092066;28;19919;-37
2023/03/10 12:07:34;;;;;;;;;;;5.30;91.60;;;;;;5092034;28;19919;-36
2023/03/10 12:10:02;;;;;;;;;;;5.30;91.60;;;;;;5092010;28;19923;-37
2023/03/10 12:12:35;;;;;;;;;;;5.30;91.60;;;;;;5091957;28;19916;-35
2023/03/10 12:15:21;;;;;;;;;;;5.30;91.70;;;;;;5092172;28;19919;-36
2023/03/10 12:17:50;;;;;;;;;;;5.40;91.70;;;;;;5092098;28;19943;-35
2023/03/10 12:20:16;;;;;;;;;;;5.40;91.70;;;;;;5091962;28;20290;-35
2023/03/10 12:22:46;;;;;;;;;;;5.40;91.60;;;;;;5092053;28;19919;-37
2023/03/10 12:25:26;;;;;;;;;;;5.40;91.60;;;;;;5092016;28;19912;-36
2023/03/10 12:28:10;;;;;;;;;;;5.50;91.70;;;;;;5092105;28;19916;-37
2023/03/10 12:30:46;;;;;;;;;;;5.50;91.60;;;;;;5091705;28;20007;-36
2023/03/10 12:33:30;;;;;;;;;;;5.50;91.60;;;;;;5091998;28;19912;-37
2023/03/10 12:36:01;;;;;;;;;;;5.50;91.70;;;;;;5095707;28;19990;-36
2023/03/10 12:38:46;;;;;;;;;;;5.50;91.60;;;;;;5095608;28;19990;-35
2023/03/10 12:41:13;;;;;;;;;;;5.50;91.60;;;;;;5095655;28;20002;-37
2023/03/10 12:43:41;;;;;;;;;;;5.40;91.60;;;;;;5095576;28;19991;-35
2023/03/10 12:46:10;;;;;;;;;;;5.40;91.60;;;;;;5095672;28;20257;-35
2023/03/10 12:48:39;;;;;;;;;;;5.40;91.60;;;;;;5095488;28;19916;-37
2023/03/10 12:51:18;;;;;;;;;;;5.40;91.60;;;;;;5094077;28;19919;-36
2023/03/10 12:53:53;;;;;;;;;;;5.40;91.70;;;;;;5095554;28;19919;-37
2023/03/10 12:56:35;;;;;;;;;;;5.50;91.70;;;;;;5095463;28;20080;-36
2023/03/10 12:59:06;;;;;;;;;;;5.50;91.70;;;;;;5095396;28;20332;-37
2023/03/10 13:01:36;;;;;;;;;;;5.50;91.60;;;;;;5095669;28;19988;-37
2023/03/10 13:04:04;;;;;;;;;;;5.50;91.60;;;;;;5095230;28;19908;-36
2023/03/10 13:06:34;;;;;;;;;;;5.50;91.70;;;;;;5095009;28;19908;-36
2023/03/10 13:09:15;;;;;;;;;;;5.50;91.60;;;;;;5094825;28;19915;-38
2023/03/10 13:11:42;;;;;;;;;;;5.50;91.60;;;;;;5095048;28;19912;-37
2023/03/10 13:14:08;;;;;;;;;;;5.40;91.50;;;;;;5094963;28;19908;-37
2023/03/10 13:16:35;;;;;;;;;;;5.30;91.50;;;;;;5095027;28;19914;-37
2023/03/10 13:19:02;;;;;;;;;;;5.20;91.60;;;;;;5094897;28;19908;-37
2023/03/10 13:21:28;;;;;;;;;;;5.20;91.70;;;;;;5094807;28;20014;-36
2023/03/10 13:23:54;;;;;;;;;;;5.20;91.80;;;;;;5094862;28;19959;-37
2023/03/10 13:26:20;;;;;;;;;;;5.10;91.80;;;;;;5094771;28;19909;-38
2023/03/10 13:28:50;;;;;;;;;;;5.10;91.90;;;;;;5094747;28;20421;-36
2023/03/10 13:31:20;;;;;;;;;;;5.00;91.80;;;;;;5094495;28;19942;-35
2023/03/10 13:33:47;;;;;;;;;;;5.00;91.90;;;;;;5094713;28;19908;-37
2023/03/10 13:36:35;;;;;;;;;;;4.90;91.90;;;;;;5094501;28;19998;-38
2023/03/10 13:39:02;;;;;;;;;;;4.80;91.90;;;;;;5094548;28;19908;-39
2023/03/10 13:41:32;;;;;;;;;;;4.80;92.00;;;;;;5094409;28;19915;-39
2023/03/10 13:43:57;;;;;;;;;;;4.70;92.10;;;;;;5094008;28;19915;-43
2023/03/10 13:46:25;;;;;;;;;;;4.70;92.10;;;;;;5093867;28;19908;-37
2023/03/10 13:48:51;;;;;;;;;;;4.60;92.10;;;;;;5094059;28;19957;-37
2023/03/10 13:51:17;;;;;;;;;;;4.60;92.20;;;;;;5094163;28;20359;-36
2023/03/10 13:53:43;;;;;;;;;;;4.60;92.30;;;;;;5094173;28;19998;-37
2023/03/10 13:56:16;;;;;;;;;;;4.50;92.20;;;;;;5094079;28;19912;-36
2023/03/10 13:58:42;;;;;;;;;;;4.50;92.20;;;;;;5094015;28;19956;-38
2023/03/10 14:01:12;;;;;;;;;;;4.50;92.20;;;;;;5094076;28;19917;-35
2023/03/10 14:03:46;;;;;;;;;;;4.50;92.20;;;;;;5093926;28;19915;-36
2023/03/10 14:06:12;;;;;;;;;;;4.40;92.30;;;;;;5092611;28;19912;-37
2023/03/10 14:08:38;;;;;;;;;;;4.30;92.20;;;;;;5093768;28;19912;-35
2023/03/10 14:11:22;;;;;;;;;;;4.30;92.20;;;;;;5093722;28;20260;-38
2023/03/10 14:13:47;;;;;;;;;;;4.20;92.20;;;;;;5093965;28;19908;-37
2023/03/10 14:16:13;;;;;;;;;;;4.20;92.30;;;;;;5093645;28;20278;-38
2023/03/10 14:18:40;;;;;;;;;;;4.10;92.40;;;;;;5093669;28;19908;-43
2023/03/10 14:21:41;;;;;;;;;;;4.10;92.40;;;;;;5093553;28;19915;-35
2023/03/10 14:24:12;;;;;;;;;;;4.10;92.40;;;;;;5051012;28;20000;-36
2023/03/10 14:26:38;;;;;;;;;;;4.10;92.50;;;;;;5086410;28;20262;-36
2023/03/10 14:29:16;;;;;;;;;;;4.00;92.40;;;;;;5093240;28;19916;-36
2023/03/10 14:31:42;;;;;;;;;;;4.00;92.50;;;;;;5093343;28;20004;-37
2023/03/10 14:34:12;;;;;;;;;;;3.90;92.50;;;;;;5093290;28;19908;-35